createdAt,value
2022-10-18T00:00:53.087Z,16.90
2022-10-18T00:03:20.824Z,16.86
2022-10-18T00:05:49.088Z,16.90
2022-10-18T00:08:17.299Z,16.87
2022-10-18T00:10:45.390Z,16.85
2022-10-18T00:13:14.717Z,16.85
2022-10-18T00:15:49.943Z,16.85
2022-10-18T00:18:17.683Z,16.87
2022-10-18T00:20:45.435Z,16.86
2022-10-18T00:23:13.389Z,16.85
2022-10-18T00:25:41.068Z,16.85
2022-10-18T00:28:08.791Z,16.86
2022-10-18T00:30:38.003Z,16.86
2022-10-18T00:33:05.724Z,16.86
2022-10-18T00:35:36.085Z,16.87
2022-10-18T00:38:03.831Z,16.89
2022-10-18T00:40:31.541Z,16.88
2022-10-18T00:42:59.275Z,16.88
2022-10-18T00:45:27.211Z,16.91
2022-10-18T00:48:01.125Z,16.93
2022-10-18T00:50:33.999Z,16.93
2022-10-18T00:53:04.238Z,16.93
2022-10-18T00:55:35.024Z,16.88
2022-10-18T00:58:02.963Z,16.93
2022-10-18T01:00:30.773Z,16.96
2022-10-18T01:03:00.465Z,16.93
2022-10-18T01:05:28.491Z,16.95
2022-10-18T01:08:25.510Z,16.95
2022-10-18T01:11:02.195Z,16.93
2022-10-18T01:13:43.819Z,16.93
2022-10-18T01:16:21.177Z,16.93
2022-10-18T01:19:00.003Z,16.91
2022-10-18T01:21:39.352Z,16.93
2022-10-18T01:24:37.978Z,16.93
2022-10-18T01:27:28.734Z,16.91
2022-10-18T01:30:11.463Z,16.93
2022-10-18T01:32:45.772Z,16.92
2022-10-18T01:35:17.927Z,16.91
2022-10-18T01:37:49.504Z,16.85
2022-10-18T01:40:20.556Z,16.88
2022-10-18T01:42:50.687Z,16.89
2022-10-18T01:45:20.122Z,16.92
2022-10-18T01:47:49.731Z,16.92
2022-10-18T01:50:29.974Z,16.88
2022-10-18T01:52:58.307Z,16.90
2022-10-18T01:55:31.472Z,16.86
2022-10-18T01:58:06.931Z,16.92
2022-10-18T02:00:41.052Z,16.90
2022-10-18T02:03:18.284Z,16.91
2022-10-18T02:05:52.552Z,16.94
2022-10-18T02:08:29.257Z,16.96
2022-10-18T02:11:01.860Z,16.96
2022-10-18T02:13:35.328Z,16.96
2022-10-18T02:16:08.935Z,16.94
2022-10-18T02:18:42.446Z,16.94
2022-10-18T02:21:14.559Z,16.93
2022-10-18T02:23:44.327Z,16.94
2022-10-18T02:26:12.082Z,16.95
2022-10-18T02:28:40.329Z,16.93
2022-10-18T02:31:16.631Z,16.93
2022-10-18T02:33:51.743Z,16.92
2022-10-18T02:36:23.382Z,16.90
2022-10-18T02:38:55.471Z,16.90
2022-10-18T02:41:25.679Z,16.88
2022-10-18T02:43:53.692Z,16.88
2022-10-18T02:46:21.688Z,16.88
2022-10-18T02:48:50.946Z,16.88
2022-10-18T02:51:18.975Z,16.88
2022-10-18T02:53:46.699Z,16.89
2022-10-18T02:56:14.402Z,16.90
2022-10-18T02:58:42.102Z,16.88
2022-10-18T03:01:09.885Z,16.88
2022-10-18T03:03:37.674Z,16.87
2022-10-18T03:06:07.122Z,16.88
2022-10-18T03:08:34.881Z,16.90
2022-10-18T03:11:02.605Z,16.87
2022-10-18T03:16:03.038Z,16.86
2022-10-18T03:18:30.811Z,16.88
2022-10-18T03:20:58.529Z,16.88
2022-10-18T03:23:27.810Z,16.91
2022-10-18T03:25:55.531Z,16.92
2022-10-18T03:28:23.296Z,16.92
2022-10-18T03:30:51.119Z,16.83
2022-10-18T03:33:18.869Z,16.93
2022-10-18T03:35:46.575Z,16.92
2022-10-18T03:38:14.293Z,16.93
2022-10-18T03:40:43.352Z,16.92
2022-10-18T03:43:11.101Z,16.88
2022-10-18T03:45:38.856Z,16.87
2022-10-18T03:48:07.188Z,16.84
2022-10-18T03:50:35.095Z,16.86
2022-10-18T03:53:02.906Z,16.86
2022-10-18T03:55:30.611Z,16.83
2022-10-18T03:57:59.737Z,16.83
2022-10-18T04:00:27.540Z,16.81
2022-10-18T04:02:56.095Z,16.81
2022-10-18T04:05:26.813Z,16.81
2022-10-18T04:07:54.791Z,16.81
2022-10-18T04:10:22.556Z,16.80
2022-10-18T04:12:50.647Z,16.80
2022-10-18T04:15:19.863Z,16.81
2022-10-18T04:17:47.848Z,16.81
2022-10-18T04:20:15.859Z,16.80
2022-10-18T04:22:43.591Z,16.82
2022-10-18T04:25:11.287Z,16.82
2022-10-18T04:27:39.021Z,16.81
2022-10-18T04:30:07.842Z,16.81
2022-10-18T04:32:37.186Z,16.81
2022-10-18T04:35:06.186Z,16.81
2022-10-18T04:37:34.143Z,16.81
2022-10-18T04:40:02.234Z,16.82
2022-10-18T04:42:30.035Z,16.79
2022-10-18T04:44:57.741Z,16.82
2022-10-18T04:47:25.515Z,16.82
2022-10-18T04:49:54.597Z,16.85
2022-10-18T04:52:22.323Z,16.86
2022-10-18T04:54:50.246Z,16.87
2022-10-18T04:57:18.056Z,16.86
2022-10-18T04:59:46.059Z,16.82
2022-10-18T05:02:13.813Z,16.87
2022-10-18T05:04:41.558Z,16.87
2022-10-18T05:07:10.767Z,16.88
2022-10-18T05:09:38.472Z,16.87
2022-10-18T05:12:06.382Z,16.88
2022-10-18T05:14:34.114Z,16.88
2022-10-18T05:17:01.834Z,16.88
2022-10-18T05:19:29.555Z,16.88
2022-10-18T05:21:57.306Z,16.90
2022-10-18T05:24:27.770Z,16.88
2022-10-18T05:26:55.890Z,16.91
2022-10-18T05:29:24.003Z,16.88
2022-10-18T05:31:51.951Z,16.88
2022-10-18T05:34:20.629Z,16.88
2022-10-18T05:36:49.368Z,16.87
2022-10-18T05:39:17.067Z,16.88
2022-10-18T05:41:46.132Z,16.87
2022-10-18T05:44:13.847Z,16.89
2022-10-18T05:46:41.629Z,16.91
2022-10-18T05:49:11.143Z,16.91
2022-10-18T05:51:38.868Z,16.92
2022-10-18T05:54:06.760Z,16.91
2022-10-18T05:56:34.576Z,16.88
2022-10-18T05:59:05.079Z,16.93
2022-10-18T06:01:32.794Z,16.92
2022-10-18T06:04:00.527Z,16.92
2022-10-18T06:06:28.210Z,16.92
2022-10-18T06:08:55.973Z,16.91
2022-10-18T06:11:23.979Z,16.90
2022-10-18T06:13:53.225Z,16.88
2022-10-18T06:16:27.243Z,16.90
2022-10-18T06:18:59.793Z,16.88
2022-10-18T06:21:27.567Z,16.88
2022-10-18T06:23:57.223Z,16.90
2022-10-18T06:26:25.610Z,16.92
2022-10-18T06:28:53.486Z,16.91
2022-10-18T06:31:22.681Z,16.93
2022-10-18T06:33:51.102Z,16.92
2022-10-18T06:36:21.984Z,16.94
2022-10-18T06:38:49.891Z,16.94
2022-10-18T06:41:19.185Z,16.93
2022-10-18T06:43:49.580Z,16.87
2022-10-18T06:46:17.423Z,16.92
2022-10-18T06:48:47.173Z,16.93
2022-10-18T06:51:15.178Z,16.93
2022-10-18T06:53:53.458Z,16.96
2022-10-18T06:56:31.067Z,16.95
2022-10-18T06:59:01.426Z,16.91
2022-10-18T07:01:29.366Z,16.93
2022-10-18T07:03:59.835Z,16.88
2022-10-18T07:06:27.561Z,16.94
2022-10-18T07:08:55.398Z,16.94
2022-10-18T07:11:25.398Z,16.97
2022-10-18T07:13:55.022Z,16.95
2022-10-18T07:16:23.092Z,16.96
2022-10-18T07:18:52.063Z,16.97
2022-10-18T07:21:23.714Z,16.97
2022-10-18T07:23:52.529Z,16.97
2022-10-18T07:26:22.362Z,16.97
2022-10-18T07:28:54.144Z,16.99
2022-10-18T07:31:22.633Z,16.99
2022-10-18T07:33:50.405Z,16.99
2022-10-18T07:36:18.245Z,16.99
2022-10-18T07:38:47.301Z,17.01
2022-10-18T07:41:15.873Z,17.01
2022-10-18T07:43:45.752Z,17.01
2022-10-18T07:46:14.977Z,17.03
2022-10-18T07:48:42.704Z,17.03
2022-10-18T07:51:11.334Z,17.00
2022-10-18T07:53:39.460Z,17.05
2022-10-18T07:56:15.920Z,17.05
2022-10-18T07:58:44.285Z,17.05
2022-10-18T08:01:12.439Z,17.03
2022-10-18T08:03:40.875Z,17.02
2022-10-18T08:06:10.834Z,17.04
2022-10-18T08:08:39.960Z,17.03
2022-10-18T08:11:11.550Z,17.03
2022-10-18T08:13:39.344Z,17.02
2022-10-18T08:16:09.076Z,17.05
2022-10-18T08:18:37.806Z,17.06
2022-10-18T08:21:07.927Z,17.07
2022-10-18T08:23:36.656Z,17.08
2022-10-18T08:26:05.468Z,17.07
2022-10-18T08:28:36.663Z,17.10
2022-10-18T08:31:05.312Z,17.10
2022-10-18T08:33:33.957Z,17.07
2022-10-18T08:36:05.664Z,17.07
2022-10-18T08:38:34.404Z,17.08
2022-10-18T08:41:14.383Z,17.09
2022-10-18T08:43:48.359Z,17.09
2022-10-18T08:46:16.143Z,17.10
2022-10-18T08:48:48.371Z,17.08
2022-10-18T08:51:28.324Z,17.06
2022-10-18T08:54:03.807Z,17.06
2022-10-18T08:56:33.804Z,17.06
2022-10-18T08:59:04.887Z,17.02
2022-10-18T09:01:45.699Z,17.04
2022-10-18T09:04:31.266Z,17.02
2022-10-18T09:07:16.258Z,17.03
2022-10-18T09:09:51.340Z,17.02
2022-10-18T09:12:35.984Z,17.00
2022-10-18T09:15:28.959Z,17.06
2022-10-18T09:18:10.248Z,17.06
2022-10-18T09:20:48.871Z,17.07
2022-10-18T09:23:20.907Z,17.03
2022-10-18T09:25:50.726Z,17.02
2022-10-18T09:28:32.606Z,17.01
2022-10-18T09:31:10.948Z,17.05
2022-10-18T09:33:46.865Z,17.10
2022-10-18T09:36:20.271Z,17.09
2022-10-18T09:38:50.880Z,17.11
2022-10-18T09:41:24.071Z,17.14
2022-10-18T09:43:58.033Z,17.19
2022-10-18T09:46:32.716Z,17.22
2022-10-18T09:49:05.242Z,17.22
2022-10-18T09:51:37.946Z,17.25
2022-10-18T09:54:21.186Z,17.43
2022-10-18T09:56:51.976Z,17.51
2022-10-18T09:59:33.415Z,17.41
2022-10-18T10:02:02.641Z,17.42
2022-10-18T10:04:30.670Z,17.43
2022-10-18T10:07:01.267Z,17.45
2022-10-18T10:09:30.839Z,17.47
2022-10-18T10:11:59.581Z,17.50
2022-10-18T10:14:30.277Z,17.51
2022-10-18T10:17:02.163Z,17.55
2022-10-18T10:19:34.379Z,17.54
2022-10-18T10:22:06.447Z,17.64
2022-10-18T10:24:42.923Z,17.64
2022-10-18T10:27:19.376Z,17.69
2022-10-18T10:29:57.671Z,17.74
2022-10-18T10:32:32.141Z,17.74
2022-10-18T10:35:01.283Z,17.82
2022-10-18T10:37:35.765Z,17.77
2022-10-18T10:40:28.569Z,17.73
2022-10-18T10:43:36.643Z,17.78
2022-10-18T10:46:09.620Z,17.81
2022-10-18T10:48:46.339Z,17.72
2022-10-18T10:51:18.206Z,17.78
2022-10-18T10:53:52.379Z,17.91
2022-10-18T10:56:26.660Z,18.15
2022-10-18T10:58:56.688Z,18.19
2022-10-18T11:01:31.505Z,18.23
2022-10-18T11:04:01.769Z,18.21
2022-10-18T11:06:40.330Z,18.25
2022-10-18T11:09:19.131Z,18.38
2022-10-18T11:11:59.227Z,18.51
2022-10-18T11:14:31.463Z,18.58
2022-10-18T11:17:08.505Z,18.65
2022-10-18T11:19:43.947Z,18.76
2022-10-18T11:22:18.468Z,18.76
2022-10-18T11:24:46.215Z,18.74
2022-10-18T11:27:23.687Z,18.62
2022-10-18T11:30:04.260Z,18.53
2022-10-18T11:32:41.787Z,18.58
2022-10-18T11:35:27.722Z,18.58
2022-10-18T11:38:10.292Z,18.56
2022-10-18T11:40:54.906Z,18.55
2022-10-18T11:43:34.434Z,18.57
2022-10-18T11:46:25.291Z,18.47
2022-10-18T11:49:16.127Z,18.44
2022-10-18T11:52:07.830Z,18.46
2022-10-18T11:54:53.368Z,18.49
2022-10-18T11:57:35.599Z,18.52
2022-10-18T12:00:16.106Z,18.52
2022-10-18T12:03:01.599Z,18.45
2022-10-18T12:05:30.915Z,18.60
2022-10-18T12:08:03.549Z,18.60
2022-10-18T12:10:45.771Z,18.56
2022-10-18T12:13:28.928Z,18.61
2022-10-18T12:15:56.929Z,18.68
2022-10-18T12:18:26.789Z,18.67
2022-10-18T12:20:57.125Z,18.65
2022-10-18T12:23:35.602Z,18.72
2022-10-18T12:26:06.931Z,18.81
2022-10-18T12:28:45.975Z,18.76
2022-10-18T12:31:21.891Z,18.77
2022-10-18T12:33:53.471Z,18.77
2022-10-18T12:36:42.060Z,18.81
2022-10-18T12:39:21.532Z,18.80
2022-10-18T12:41:58.482Z,18.78
2022-10-18T12:44:32.143Z,18.79
2022-10-18T12:47:01.901Z,18.80
2022-10-18T12:49:32.281Z,18.78
2022-10-18T12:52:02.756Z,18.78
2022-10-18T12:54:32.899Z,18.77
2022-10-18T12:57:03.571Z,18.73
2022-10-18T12:59:52.180Z,18.71
2022-10-18T13:02:29.187Z,18.66
2022-10-18T13:05:02.244Z,18.66
2022-10-18T13:07:40.931Z,18.67
2022-10-18T13:10:42.224Z,18.66
2022-10-18T13:13:44.696Z,18.56
2022-10-18T13:16:30.416Z,18.59
2022-10-18T13:19:00.435Z,18.62
2022-10-18T13:21:43.175Z,18.66
2022-10-18T13:24:27.711Z,18.64
2022-10-18T13:30:20.721Z,18.59
2022-10-18T13:32:54.925Z,18.61
2022-10-18T13:35:52.112Z,18.58
2022-10-18T13:38:33.813Z,18.63
2022-10-18T13:41:03.503Z,18.61
2022-10-18T13:44:21.087Z,18.65
2022-10-18T13:47:34.288Z,18.67
2022-10-18T13:50:16.481Z,18.73
2022-10-18T13:53:03.185Z,18.72
2022-10-18T13:55:45.539Z,18.68
2022-10-18T13:58:23.385Z,18.58
2022-10-18T14:01:03.841Z,18.55
2022-10-18T14:03:57.596Z,18.53
2022-10-18T14:06:29.920Z,18.56
2022-10-18T14:09:09.660Z,18.50
2022-10-18T14:11:53.531Z,18.55
2022-10-18T14:14:34.290Z,18.53
2022-10-18T14:17:17.775Z,18.48
2022-10-18T14:19:53.378Z,18.42
2022-10-18T14:22:28.051Z,18.40
2022-10-18T14:25:02.739Z,18.12
2022-10-18T14:27:42.069Z,18.39
2022-10-18T14:33:11.716Z,18.30
2022-10-18T14:35:55.358Z,18.19
2022-10-18T14:38:28.035Z,18.30
2022-10-18T14:41:18.738Z,18.20
2022-10-18T14:43:55.919Z,18.21
2022-10-18T14:46:49.886Z,18.11
2022-10-18T14:49:27.604Z,18.15
2022-10-18T14:52:03.779Z,18.12
2022-10-18T14:55:05.098Z,18.21
2022-10-18T14:57:43.820Z,18.19
2022-10-18T15:03:19.293Z,18.17
2022-10-18T15:08:54.856Z,18.05
2022-10-18T15:11:35.222Z,18.03
2022-10-18T15:14:16.189Z,18.03
2022-10-18T15:17:01.166Z,17.95
2022-10-18T15:19:33.841Z,17.95
2022-10-18T15:22:30.618Z,17.93
2022-10-18T15:25:34.723Z,17.91
2022-10-18T15:28:08.924Z,17.86
2022-10-18T15:30:44.466Z,17.75
2022-10-18T15:33:24.397Z,17.71
2022-10-18T15:35:55.045Z,17.63
2022-10-18T15:38:34.182Z,17.65
2022-10-18T15:41:04.966Z,17.61
2022-10-18T15:43:52.006Z,17.52
2022-10-18T15:46:35.592Z,17.51
2022-10-18T15:49:40.577Z,17.54
2022-10-18T15:52:43.595Z,17.46
2022-10-18T15:55:46.054Z,17.41
2022-10-18T15:58:18.179Z,17.39
2022-10-18T16:00:48.539Z,17.33
2022-10-18T16:03:17.668Z,17.31
2022-10-18T16:05:45.826Z,17.29
2022-10-18T16:08:21.851Z,17.28
2022-10-18T16:10:49.754Z,17.24
2022-10-18T16:13:17.495Z,17.18
2022-10-18T16:15:45.340Z,17.15
2022-10-18T16:18:18.473Z,17.08
2022-10-18T16:20:47.060Z,17.04
2022-10-18T16:23:21.506Z,16.99
2022-10-18T16:25:49.716Z,16.95
2022-10-18T16:28:19.303Z,16.92
2022-10-18T16:30:54.390Z,16.87
2022-10-18T16:33:23.886Z,16.82
2022-10-18T16:35:51.958Z,16.80
2022-10-18T16:38:32.519Z,16.75
2022-10-18T16:41:04.113Z,16.72
2022-10-18T16:43:32.166Z,16.68
2022-10-18T16:46:00.428Z,16.61
2022-10-18T16:48:32.048Z,16.59
2022-10-18T16:51:00.251Z,16.56
2022-10-18T16:53:28.753Z,16.53
2022-10-18T16:55:58.889Z,16.47
2022-10-18T16:58:28.300Z,16.46
2022-10-18T17:00:56.539Z,16.38
2022-10-18T17:03:24.695Z,16.36
2022-10-18T17:05:53.910Z,16.36
2022-10-18T17:08:23.861Z,16.34
2022-10-18T17:10:53.547Z,16.31
2022-10-18T17:13:21.832Z,16.25
2022-10-18T17:15:50.620Z,16.22
2022-10-18T17:18:21.769Z,16.18
2022-10-18T17:20:50.907Z,16.14
2022-10-18T17:23:20.020Z,16.10
2022-10-18T17:25:59.129Z,16.08
2022-10-18T17:28:35.166Z,16.05
2022-10-18T17:31:03.016Z,16.02
2022-10-18T17:33:30.846Z,16.00
2022-10-18T17:35:58.576Z,15.97
2022-10-18T17:38:27.696Z,15.91
2022-10-18T17:40:56.772Z,15.89
2022-10-18T17:43:24.666Z,15.82
2022-10-18T17:45:56.164Z,15.81
2022-10-18T17:48:24.916Z,15.79
2022-10-18T17:50:52.687Z,15.75
2022-10-18T17:53:22.889Z,15.71
2022-10-18T17:56:01.237Z,15.67
2022-10-18T17:58:30.007Z,15.65
2022-10-18T18:00:57.801Z,15.67
2022-10-18T18:03:25.518Z,15.58
2022-10-18T18:05:53.253Z,15.58
2022-10-18T18:08:20.924Z,15.56
2022-10-18T18:13:22.621Z,15.54
2022-10-18T18:15:50.331Z,15.51
2022-10-18T18:18:18.043Z,15.53
2022-10-18T18:20:53.340Z,15.51
2022-10-18T18:23:22.856Z,15.45
2022-10-18T18:25:56.492Z,15.38
2022-10-18T18:28:26.159Z,15.36
2022-10-18T18:30:53.955Z,15.34
2022-10-18T18:33:21.688Z,15.36
2022-10-18T18:35:56.219Z,15.30
2022-10-18T18:38:24.055Z,15.30
2022-10-18T18:40:52.015Z,15.26
2022-10-18T18:43:23.163Z,15.26
2022-10-18T18:45:53.019Z,15.24
2022-10-18T18:48:20.718Z,15.25
2022-10-18T18:50:50.572Z,15.25
2022-10-18T18:53:18.795Z,15.22
2022-10-18T18:55:47.727Z,15.19
2022-10-18T18:58:15.387Z,15.16
2022-10-18T19:00:44.617Z,15.13
2022-10-18T19:03:13.769Z,15.05
2022-10-18T19:05:41.585Z,14.93
2022-10-18T19:08:09.266Z,15.03
2022-10-18T19:10:36.998Z,15.03
2022-10-18T19:13:09.617Z,14.98
2022-10-18T19:15:37.426Z,14.99
2022-10-18T19:18:05.644Z,14.97
2022-10-18T19:20:34.708Z,14.95
2022-10-18T19:23:02.432Z,14.96
2022-10-18T19:25:30.349Z,15.00
2022-10-18T19:27:58.092Z,14.94
2022-10-18T19:30:25.946Z,14.88
2022-10-18T19:33:01.147Z,14.83
2022-10-18T19:35:31.250Z,14.86
2022-10-18T19:38:00.305Z,14.83
2022-10-18T19:40:28.010Z,14.71
2022-10-18T19:42:55.812Z,14.68
2022-10-18T19:45:23.651Z,14.68
2022-10-18T19:47:51.292Z,14.71
2022-10-18T19:50:19.967Z,14.64
2022-10-18T19:52:47.911Z,14.64
2022-10-18T19:55:19.695Z,14.64
2022-10-18T19:57:48.793Z,14.66
2022-10-18T20:00:19.422Z,14.67
2022-10-18T20:02:47.771Z,14.63
2022-10-18T20:05:15.544Z,14.56
2022-10-18T20:07:45.205Z,14.50
2022-10-18T20:10:13.140Z,14.46
2022-10-18T20:12:42.300Z,14.39
2022-10-18T20:15:11.304Z,14.49
2022-10-18T20:17:41.660Z,14.48
2022-10-18T20:20:10.477Z,14.38
2022-10-18T20:22:38.597Z,14.40
2022-10-18T20:25:11.890Z,14.37
2022-10-18T20:27:41.409Z,14.40
2022-10-18T20:30:11.674Z,14.32
2022-10-18T20:32:39.627Z,14.18
2022-10-18T20:35:07.844Z,14.28
2022-10-18T20:37:35.849Z,14.21
2022-10-18T20:40:03.723Z,14.18
2022-10-18T20:42:31.380Z,14.22
2022-10-18T20:44:59.094Z,14.22
2022-10-18T20:47:28.207Z,14.20
2022-10-18T20:49:55.917Z,14.15
2022-10-18T20:52:23.690Z,14.17
2022-10-18T20:54:51.451Z,14.16
2022-10-18T20:57:19.354Z,14.08
2022-10-18T20:59:47.084Z,14.04
2022-10-18T21:02:15.243Z,14.05
2022-10-18T21:04:44.368Z,14.01
2022-10-18T21:07:15.370Z,13.91
2022-10-18T21:09:43.062Z,13.90
2022-10-18T21:14:43.514Z,13.92
2022-10-18T21:17:11.279Z,13.87
2022-10-18T21:19:39.259Z,13.87
2022-10-18T21:22:08.427Z,13.87
2022-10-18T21:24:36.509Z,13.81
2022-10-18T21:27:07.539Z,13.63
2022-10-18T21:29:35.264Z,13.75
2022-10-18T21:32:03.162Z,13.68
2022-10-18T21:34:30.895Z,13.72
2022-10-18T21:36:58.876Z,13.76
2022-10-18T21:39:28.066Z,13.66
2022-10-18T21:41:55.790Z,13.72
2022-10-18T21:44:23.860Z,13.74
2022-10-18T21:46:52.288Z,13.74
2022-10-18T21:49:20.375Z,13.67
2022-10-18T21:51:48.075Z,13.62
2022-10-18T21:54:17.247Z,13.53
2022-10-18T21:56:46.433Z,13.57
2022-10-18T21:59:14.308Z,13.48
2022-10-18T22:01:43.540Z,13.56
2022-10-18T22:04:19.471Z,13.63
2022-10-18T22:06:47.337Z,13.61
2022-10-18T22:09:15.163Z,13.57
2022-10-18T22:11:45.510Z,13.56
2022-10-18T22:14:14.577Z,13.47
2022-10-18T22:16:42.380Z,13.42
2022-10-18T22:19:10.067Z,13.45
2022-10-18T22:21:37.865Z,13.42
2022-10-18T22:24:07.719Z,13.42
2022-10-18T22:26:37.075Z,13.35
2022-10-18T22:29:07.208Z,13.30
2022-10-18T22:31:38.317Z,13.25
2022-10-18T22:34:08.910Z,13.34
2022-10-18T22:36:36.966Z,13.34
2022-10-18T22:39:05.974Z,13.40
2022-10-18T22:41:34.008Z,13.35
2022-10-18T22:44:03.587Z,13.27
2022-10-18T22:46:32.414Z,13.35
2022-10-18T22:49:01.539Z,13.33
2022-10-18T22:51:29.314Z,13.28
2022-10-18T22:53:57.034Z,13.21
2022-10-18T22:56:25.083Z,13.18
2022-10-18T22:58:53.320Z,13.22
2022-10-18T23:01:23.059Z,13.25
2022-10-18T23:03:54.116Z,13.21
2022-10-18T23:06:25.287Z,13.16
2022-10-18T23:08:54.784Z,13.13
2022-10-18T23:11:23.448Z,13.10
2022-10-18T23:13:51.180Z,13.10
2022-10-18T23:16:19.219Z,13.17
2022-10-18T23:18:50.570Z,13.16
2022-10-18T23:21:18.306Z,13.10
2022-10-18T23:23:48.028Z,13.12
2022-10-18T23:26:18.614Z,13.08
2022-10-18T23:28:48.133Z,13.05
2022-10-18T23:31:18.834Z,12.95
2022-10-18T23:33:48.266Z,12.88
2022-10-18T23:36:16.742Z,12.95
2022-10-18T23:38:44.738Z,12.93
2022-10-18T23:41:15.718Z,12.84
2022-10-18T23:43:43.710Z,12.76
2022-10-18T23:46:12.277Z,12.74
2022-10-18T23:48:40.647Z,12.74
2022-10-18T23:51:08.799Z,12.81
2022-10-18T23:53:36.878Z,12.80
2022-10-18T23:56:06.586Z,12.80
2022-10-18T23:58:36.588Z,12.75
